Time,TemperatureF,DewpointF,PressureIn,WindDirection,WindDirectionDegrees,WindSpeedMPH,WindSpeedGustMPH,Humidity,HourlyPrecipIn,Conditions,Clouds,dailyrainin,SoftwareType,DateUTC
2013-05-22 00:01:00,65.6,18.2,29.48,West,281,4.0,17.0,16,0.00,,SKC,0.00,VWS V12.07,2013-05-22 06:01:00,
2013-05-22 00:30:00,65.2,20.7,29.48,WSW,242,0.0,9.0,18,0.00,,SKC,0.00,VWS V12.07,2013-05-22 06:30:00,
2013-05-22 01:00:00,64.8,17.6,29.47,SSW,205,0.0,9.0,16,0.00,,SKC,0.00,VWS V12.07,2013-05-22 07:00:00,
2013-05-22 01:30:00,65.8,18.4,29.46,WSW,249,0.0,2.0,16,0.00,,SKC,0.00,VWS V12.07,2013-05-22 07:30:00,
2013-05-22 02:01:00,66.6,15.9,29.43,SSW,212,0.0,14.0,14,0.00,,SKC,0.00,VWS V12.07,2013-05-22 08:01:00,
2013-05-22 02:30:00,64.2,17.1,29.43,SSW,195,0.0,7.0,16,0.00,,SKC,0.00,VWS V12.07,2013-05-22 08:30:00,
2013-05-22 03:00:00,63.9,20.9,29.42,SSW,196,0.0,9.0,19,0.00,,SKC,0.00,VWS V12.07,2013-05-22 09:00:00,
2013-05-22 03:30:00,61.8,19.1,29.44,NNW,333,0.0,8.0,19,0.00,,SKC,0.00,VWS V12.07,2013-05-22 09:30:00,
2013-05-22 04:00:00,62.4,15.6,29.43,West,264,0.0,8.0,16,0.00,,SKC,0.00,VWS V12.07,2013-05-22 10:00:00,
2013-05-22 04:30:00,63.4,15.0,29.42,WNW,288,1.0,8.0,15,0.00,,SKC,0.00,VWS V12.07,2013-05-22 10:30:00,
2013-05-22 05:01:00,63.4,16.5,29.41,South,169,0.0,8.0,16,0.00,,SKC,0.00,VWS V12.07,2013-05-22 11:01:00,
2013-05-22 05:30:00,61.2,16.1,29.42,SSW,210,0.0,0.0,17,0.00,,SKC,0.00,VWS V12.07,2013-05-22 11:30:00,
2013-05-22 06:00:00,63.7,18.1,29.41,SW,230,0.0,5.0,17,0.00,,SKC,0.00,VWS V12.07,2013-05-22 12:00:00,
2013-05-22 06:30:00,63.7,15.2,29.42,SSW,200,0.0,1.0,15,0.00,,SKC,0.00,VWS V12.07,2013-05-22 12:30:00,
2013-05-22 07:00:00,63.7,20.7,29.43,SW,214,0.0,6.0,19,0.00,,SKC,0.00,VWS V12.07,2013-05-22 13:00:00,
2013-05-22 07:30:00,64.3,18.6,29.42,SSW,205,10.0,11.0,17,0.00,,SKC,0.00,VWS V12.07,2013-05-22 13:30:00,
2013-05-22 08:01:00,66.6,19.0,29.39,WSW,253,0.0,16.0,16,0.00,,SKC,0.00,VWS V12.07,2013-05-22 14:01:00,
2013-05-22 08:30:00,67.6,22.6,29.38,SW,221,4.0,10.0,18,0.00,,SKC,0.00,VWS V12.07,2013-05-22 14:30:00,
2013-05-22 09:00:00,68.1,21.7,29.38,SSW,194,1.0,12.0,17,0.00,,SKC,0.00,VWS V12.07,2013-05-22 15:00:00,
2013-05-22 09:30:00,68.8,20.8,29.38,SSW,213,0.0,12.0,16,0.00,,SKC,0.00,VWS V12.07,2013-05-22 15:30:00,
2013-05-22 10:00:00,69.3,22.6,29.37,WSW,246,6.0,12.0,17,0.00,,SKC,0.00,VWS V12.07,2013-05-22 16:00:00,
2013-05-22 10:30:00,71.1,26.8,29.37,SW,224,0.0,1.0,19,0.00,,SKC,0.00,VWS V12.07,2013-05-22 16:30:00,
2013-05-22 11:00:00,70.4,32.9,29.34,NE,54,0.0,4.0,25,0.00,,SKC,0.00,VWS V12.07,2013-05-22 17:00:00,
2013-05-22 11:30:00,72.8,32.9,29.34,NE,50,5.0,5.0,23,0.00,,SKC,0.00,VWS V12.07,2013-05-22 17:30:00,
2013-05-22 12:01:00,73.9,29.1,29.30,ESE,103,0.0,7.0,19,0.00,,SKC,0.00,VWS V12.07,2013-05-22 18:01:00,
2013-05-22 12:30:00,74.2,26.6,29.31,WSW,258,0.0,5.0,17,0.00,,SKC,0.00,VWS V12.07,2013-05-22 18:30:00,
2013-05-22 13:00:00,75.4,32.8,29.28,South,173,0.0,5.0,21,0.00,,SKC,0.00,VWS V12.07,2013-05-22 19:00:00,
2013-05-22 13:30:00,76.5,29.9,29.29,WSW,256,0.0,2.0,18,0.00,,SKC,0.00,VWS V12.07,2013-05-22 19:30:00,
2013-05-22 14:00:00,77.2,26.0,29.26,West,268,0.0,12.0,15,0.00,,SKC,0.00,VWS V12.07,2013-05-22 20:00:00,
2013-05-22 14:30:00,77.4,26.2,29.26,NNW,339,0.0,2.0,15,0.00,,SKC,0.00,VWS V12.07,2013-05-22 20:30:00,
2013-05-22 15:00:00,78.1,25.1,29.27,NNE,22,1.0,9.0,14,0.00,,SKC,0.00,VWS V12.07,2013-05-22 21:00:00,
2013-05-22 15:30:00,77.4,22.8,29.27,SSW,209,0.0,10.0,13,0.00,,SKC,0.00,VWS V12.07,2013-05-22 21:30:00,
2013-05-22 16:00:00,74.7,20.6,29.26,SW,217,0.0,10.0,13,0.00,,SKC,0.00,VWS V12.07,2013-05-22 22:00:00,
2013-05-22 16:30:00,76.7,22.2,29.25,NNW,340,0.0,4.0,13,0.00,,SKC,0.00,VWS V12.07,2013-05-22 22:30:00,
2013-05-22 17:00:00,77.0,20.5,29.25,North,360,0.0,4.0,12,0.00,,SKC,0.00,VWS V12.07,2013-05-22 23:00:00,
2013-05-22 17:30:00,77.9,19.2,29.23,NNE,17,1.0,4.0,11,0.00,,SKC,0.00,VWS V12.07,2013-05-22 23:30:00,
2013-05-22 18:00:00,74.7,18.8,29.24,WSW,254,0.0,10.0,12,0.00,,SKC,0.00,VWS V12.07,2013-05-23 00:00:00,
2013-05-22 18:30:00,76.3,18.0,29.22,NW,321,0.0,1.0,11,0.00,,SKC,0.00,VWS V12.07,2013-05-23 00:30:00,
2013-05-22 19:00:00,74.0,18.2,29.24,North,360,0.0,2.0,12,0.00,,SKC,0.00,VWS V12.07,2013-05-23 01:00:00,
2013-05-22 19:30:00,73.3,15.7,29.25,WSW,253,0.0,1.0,11,0.00,,SKC,0.00,VWS V12.07,2013-05-23 01:30:00,
2013-05-22 20:00:00,72.8,13.1,29.25,NW,320,0.0,7.0,10,0.00,,SKC,0.00,VWS V12.07,2013-05-23 02:00:00,
2013-05-22 20:30:00,59.6,40.4,29.33,North,355,0.0,5.0,49,0.00,,SKC,0.00,VWS V12.07,2013-05-23 02:30:00,
2013-05-22 21:00:00,55.6,40.2,29.41,NNE,28,0.0,5.0,56,0.00,,SKC,0.00,VWS V12.07,2013-05-23 03:00:00,
2013-05-22 21:30:00,52.8,40.2,29.42,NNE,24,0.0,0.0,62,0.00,,SKC,0.00,VWS V12.07,2013-05-23 03:30:00,
2013-05-22 22:00:00,50.2,40.1,29.46,NNE,24,0.0,0.0,68,0.00,,SKC,0.00,VWS V12.07,2013-05-23 04:00:00,
2013-05-22 22:30:00,48.6,35.8,29.48,SE,134,0.0,6.0,61,0.00,,SKC,0.00,VWS V12.07,2013-05-23 04:30:00,
2013-05-22 23:00:00,47.1,35.2,29.50,SSE,150,0.0,6.0,63,0.00,,SKC,0.00,VWS V12.07,2013-05-23 05:00:00,
2013-05-22 23:30:00,45.2,34.5,29.50,SSE,150,0.0,0.0,66,0.00,,SKC,0.00,VWS V12.07,2013-05-23 05:30:00,